createdAt,value
2023-08-05T00:00:12.807Z,100.00
2023-08-05T00:02:39.656Z,100.00
2023-08-05T00:05:08.127Z,100.00
2023-08-05T00:07:34.862Z,100.00
2023-08-05T00:10:01.589Z,100.00
2023-08-05T00:12:28.296Z,100.00
2023-08-05T00:14:54.942Z,100.00
2023-08-05T00:17:21.738Z,100.00
2023-08-05T00:19:48.471Z,100.00
2023-08-05T00:22:15.206Z,100.00
2023-08-05T00:24:41.889Z,100.00
2023-08-05T00:27:08.692Z,100.00
2023-08-05T00:29:35.398Z,100.00
2023-08-05T00:32:02.186Z,100.00
2023-08-05T00:34:28.952Z,100.00
2023-08-05T00:36:55.620Z,100.00
2023-08-05T00:39:22.315Z,100.00
2023-08-05T00:41:49.040Z,100.00
2023-08-05T00:44:15.686Z,100.00
2023-08-05T00:46:42.846Z,100.00
2023-08-05T00:49:10.404Z,100.00
2023-08-05T00:51:37.420Z,100.00
2023-08-05T00:54:04.645Z,100.00
2023-08-05T00:56:31.470Z,100.00
2023-08-05T00:58:58.281Z,100.00
2023-08-05T01:01:25.088Z,100.00
2023-08-05T01:03:51.862Z,100.00
2023-08-05T01:06:20.739Z,100.00
2023-08-05T01:08:48.610Z,100.00
2023-08-05T01:11:15.887Z,100.00
2023-08-05T01:13:43.486Z,100.00
2023-08-05T01:16:10.202Z,100.00
2023-08-05T01:18:38.709Z,100.00
2023-08-05T01:21:14.076Z,100.00
2023-08-05T01:23:55.622Z,100.00
2023-08-05T01:26:22.722Z,100.00
2023-08-05T01:28:49.615Z,100.00
2023-08-05T01:31:16.605Z,100.00
2023-08-05T01:33:43.889Z,100.00
2023-08-05T01:36:20.073Z,100.00
2023-08-05T01:38:48.907Z,100.00
2023-08-05T01:41:16.558Z,100.00
2023-08-05T01:43:43.480Z,100.00
2023-08-05T01:46:10.962Z,100.00
2023-08-05T01:48:38.105Z,100.00
2023-08-05T01:51:04.756Z,100.00
2023-08-05T01:53:31.395Z,100.00
2023-08-05T01:55:58.047Z,100.00
2023-08-05T01:58:24.810Z,100.00
2023-08-05T02:00:52.320Z,100.00
2023-08-05T02:03:19.523Z,100.00
2023-08-05T02:05:46.807Z,100.00
2023-08-05T02:08:13.502Z,100.00
2023-08-05T02:10:42.125Z,100.00
2023-08-05T02:13:08.872Z,100.00
2023-08-05T02:15:35.926Z,100.00
2023-08-05T02:18:03.950Z,100.00
2023-08-05T02:20:30.731Z,100.00
2023-08-05T02:22:57.381Z,100.00
2023-08-05T02:25:24.124Z,100.00
2023-08-05T02:27:50.949Z,100.00
2023-08-05T02:30:17.769Z,100.00
2023-08-05T02:32:44.644Z,100.00
2023-08-05T02:35:11.449Z,100.00
2023-08-05T02:37:38.177Z,100.00
2023-08-05T02:40:05.178Z,100.00
2023-08-05T02:42:31.837Z,100.00
2023-08-05T02:44:58.508Z,100.00
2023-08-05T02:47:25.196Z,100.00
2023-08-05T02:49:51.943Z,100.00
2023-08-05T02:52:18.633Z,100.00
2023-08-05T02:54:45.310Z,100.00
2023-08-05T02:57:12.011Z,100.00
2023-08-05T02:59:38.738Z,100.00
2023-08-05T03:02:05.545Z,100.00
2023-08-05T03:04:32.269Z,100.00
2023-08-05T03:06:58.897Z,100.00
2023-08-05T03:09:25.563Z,100.00
2023-08-05T03:11:52.208Z,100.00
2023-08-05T03:14:18.946Z,100.00
2023-08-05T03:16:45.701Z,100.00
2023-08-05T03:19:12.414Z,100.00
2023-08-05T03:21:39.131Z,100.00
2023-08-05T03:24:05.840Z,100.00
2023-08-05T03:26:32.524Z,100.00
2023-08-05T03:28:59.164Z,100.00
2023-08-05T03:31:25.864Z,100.00
2023-08-05T03:33:52.586Z,100.00
2023-08-05T03:36:19.228Z,100.00
2023-08-05T03:38:45.943Z,100.00
2023-08-05T03:41:12.696Z,100.00
2023-08-05T03:43:39.316Z,100.00
2023-08-05T03:46:06.006Z,100.00
2023-08-05T03:48:32.789Z,100.00
2023-08-05T03:50:59.485Z,100.00
2023-08-05T03:53:26.135Z,100.00
2023-08-05T03:55:52.853Z,100.00
2023-08-05T03:58:21.152Z,100.00
2023-08-05T04:00:48.197Z,100.00
2023-08-05T04:03:15.940Z,100.00
2023-08-05T04:05:42.694Z,100.00
2023-08-05T04:08:09.436Z,100.00
2023-08-05T04:10:37.274Z,100.00
2023-08-05T04:13:05.294Z,100.00
2023-08-05T04:15:34.928Z,100.00
2023-08-05T04:18:02.243Z,100.00
2023-08-05T04:20:28.921Z,100.00
2023-08-05T04:22:55.606Z,100.00
2023-08-05T04:25:22.290Z,100.00
2023-08-05T04:27:49.013Z,100.00
2023-08-05T04:30:15.791Z,100.00
2023-08-05T04:32:42.461Z,100.00
2023-08-05T04:35:09.648Z,100.00
2023-08-05T04:37:36.285Z,100.00
2023-08-05T04:40:03.066Z,100.00
2023-08-05T04:42:29.714Z,100.00
2023-08-05T04:44:56.842Z,100.00
2023-08-05T04:47:23.608Z,100.00
2023-08-05T04:49:50.281Z,100.00
2023-08-05T04:52:16.980Z,100.00
2023-08-05T04:54:45.428Z,100.00
2023-08-05T04:57:13.455Z,100.00
2023-08-05T04:59:41.279Z,100.00
2023-08-05T05:02:08.306Z,100.00
2023-08-05T05:04:35.253Z,100.00
2023-08-05T05:07:02.082Z,100.00
2023-08-05T05:09:29.099Z,100.00
2023-08-05T05:11:56.488Z,100.00
2023-08-05T05:14:23.226Z,100.00
2023-08-05T05:16:50.208Z,100.00
2023-08-05T05:19:17.216Z,100.00
2023-08-05T05:21:43.895Z,100.00
2023-08-05T05:24:10.647Z,100.00
2023-08-05T05:26:37.327Z,100.00
2023-08-05T05:29:04.077Z,100.00
2023-08-05T05:31:30.787Z,100.00
2023-08-05T05:33:57.654Z,100.00
2023-08-05T05:36:25.378Z,100.00
2023-08-05T05:38:52.065Z,100.00
2023-08-05T05:41:18.771Z,100.00
2023-08-05T05:43:45.497Z,100.00
2023-08-05T05:46:14.638Z,100.00
2023-08-05T05:48:42.317Z,100.00
2023-08-05T05:51:08.972Z,100.00
2023-08-05T05:53:35.649Z,99.50
2023-08-05T05:56:02.417Z,98.75
2023-08-05T05:58:29.204Z,96.50
2023-08-05T06:00:57.249Z,96.22
2023-08-05T06:03:24.386Z,95.00
2023-08-05T06:05:51.962Z,94.41
2023-08-05T06:08:19.087Z,94.77
2023-08-05T06:10:46.635Z,90.82
2023-08-05T06:13:13.426Z,92.56
2023-08-05T06:15:42.954Z,93.19
2023-08-05T06:18:10.368Z,90.47
2023-08-05T06:20:37.530Z,89.48
2023-08-05T06:23:04.601Z,88.60
2023-08-05T06:25:31.346Z,90.50
2023-08-05T06:27:58.231Z,90.28
2023-08-05T06:30:25.194Z,88.43
2023-08-05T06:32:51.937Z,87.53
2023-08-05T06:35:18.658Z,84.68
2023-08-05T06:37:45.564Z,85.08
2023-08-05T06:40:12.702Z,81.08
2023-08-05T06:42:39.364Z,83.56
2023-08-05T06:45:07.170Z,85.70
2023-08-05T06:47:34.014Z,82.27
2023-08-05T06:50:01.520Z,83.74
2023-08-05T06:52:28.205Z,81.99
2023-08-05T06:54:56.911Z,83.62
2023-08-05T06:57:25.713Z,83.43
2023-08-05T06:59:53.917Z,84.27
2023-08-05T07:02:20.820Z,82.16
2023-08-05T07:04:47.460Z,82.84
2023-08-05T07:07:14.172Z,82.20
2023-08-05T07:09:40.881Z,82.20
2023-08-05T07:12:07.858Z,83.53
2023-08-05T07:14:34.923Z,81.41
2023-08-05T07:17:01.624Z,82.01
2023-08-05T07:19:28.342Z,82.74
2023-08-05T07:21:55.042Z,81.83
2023-08-05T07:24:21.771Z,81.05
2023-08-05T07:26:48.467Z,81.71
2023-08-05T07:29:15.201Z,81.12
2023-08-05T07:31:41.932Z,80.74
2023-08-05T07:34:10.773Z,82.14
2023-08-05T07:36:38.071Z,81.63
2023-08-05T07:39:08.311Z,81.46
2023-08-05T07:41:35.072Z,80.77
2023-08-05T07:44:02.945Z,79.94
2023-08-05T07:46:33.252Z,80.55
2023-08-05T07:49:01.514Z,80.49
2023-08-05T07:51:29.896Z,79.73
2023-08-05T07:53:58.881Z,81.17
2023-08-05T07:56:26.180Z,82.34
2023-08-05T07:58:53.157Z,83.11
2023-08-05T08:01:23.969Z,83.26
2023-08-05T08:03:55.706Z,83.20
2023-08-05T08:06:22.818Z,80.97
2023-08-05T08:08:50.049Z,80.11
2023-08-05T08:11:16.848Z,82.67
2023-08-05T08:13:43.528Z,82.10
2023-08-05T08:16:10.666Z,81.99
2023-08-05T08:18:37.850Z,78.99
2023-08-05T08:21:06.225Z,79.27
2023-08-05T08:23:32.955Z,76.42
2023-08-05T08:26:00.346Z,75.04
2023-08-05T08:28:27.690Z,74.19
2023-08-05T08:30:55.735Z,73.67
2023-08-05T08:33:23.547Z,70.94
2023-08-05T08:35:50.795Z,69.33
2023-08-05T08:38:20.965Z,69.59
2023-08-05T08:40:53.230Z,67.04
2023-08-05T08:43:23.654Z,67.15
2023-08-05T08:45:54.291Z,65.90
2023-08-05T08:48:24.582Z,66.77
2023-08-05T08:50:54.017Z,64.02
2023-08-05T08:53:22.384Z,62.80
2023-08-05T08:55:49.604Z,60.38
2023-08-05T08:58:16.783Z,60.97
2023-08-05T09:00:43.637Z,59.66
2023-08-05T09:03:11.519Z,60.95
2023-08-05T09:06:00.394Z,59.74
2023-08-05T09:08:27.137Z,61.57
2023-08-05T09:10:53.808Z,63.08
2023-08-05T09:13:21.929Z,61.62
2023-08-05T09:15:49.047Z,62.81
2023-08-05T09:18:15.793Z,64.03
2023-08-05T09:20:42.785Z,63.14
2023-08-05T09:23:11.824Z,64.80
2023-08-05T09:25:43.171Z,67.07
2023-08-05T09:28:11.433Z,66.74
2023-08-05T09:30:38.660Z,64.28
2023-08-05T09:33:06.655Z,65.53
2023-08-05T09:35:33.459Z,64.61
2023-08-05T09:38:02.079Z,61.63
2023-08-05T09:40:33.462Z,62.91
2023-08-05T09:43:04.737Z,61.28
2023-08-05T09:45:34.525Z,59.02
2023-08-05T09:48:08.815Z,58.44
2023-08-05T09:50:38.669Z,59.68
2023-08-05T09:53:10.500Z,60.31
2023-08-05T09:55:39.908Z,59.86
2023-08-05T09:58:10.322Z,60.91
2023-08-05T10:00:43.852Z,56.24
2023-08-05T10:03:16.372Z,54.70
2023-08-05T10:05:45.934Z,56.06
2023-08-05T10:08:14.563Z,53.87
2023-08-05T10:10:42.419Z,54.85
2023-08-05T10:13:18.764Z,56.16
2023-08-05T10:15:54.097Z,57.22
2023-08-05T10:18:22.043Z,55.61
2023-08-05T10:20:53.258Z,53.94
2023-08-05T10:23:20.045Z,55.67
2023-08-05T10:25:49.415Z,55.09
2023-08-05T10:28:24.949Z,56.06
2023-08-05T10:30:53.248Z,53.83
2023-08-05T10:33:20.698Z,52.00
2023-08-05T10:35:49.562Z,51.48
2023-08-05T10:38:24.367Z,53.83
2023-08-05T10:41:07.795Z,51.81
2023-08-05T10:43:34.433Z,50.18
2023-08-05T10:46:10.758Z,50.37
2023-08-05T10:48:39.890Z,49.88
2023-08-05T10:51:18.449Z,49.92
2023-08-05T10:54:06.218Z,51.20
2023-08-05T10:56:38.927Z,52.26
2023-08-05T10:59:06.393Z,50.45
2023-08-05T11:01:57.288Z,50.88
2023-08-05T11:04:29.811Z,50.36
2023-08-05T11:06:57.999Z,50.79
2023-08-05T11:09:24.676Z,51.23
2023-08-05T11:11:51.700Z,50.26
2023-08-05T11:14:20.357Z,49.48
2023-08-05T11:16:48.197Z,48.91
2023-08-05T11:19:16.326Z,51.13
2023-08-05T11:21:49.322Z,50.08
2023-08-05T11:24:19.680Z,51.14
2023-08-05T11:26:47.870Z,49.16
2023-08-05T11:29:15.299Z,48.57
2023-08-05T11:31:52.501Z,48.70
2023-08-05T11:34:23.610Z,48.49
2023-08-05T11:36:57.126Z,48.09
2023-08-05T11:39:25.314Z,46.55
2023-08-05T11:41:53.776Z,48.04
2023-08-05T11:44:21.341Z,47.72
2023-08-05T11:46:58.782Z,47.99
2023-08-05T11:49:27.762Z,47.17
2023-08-05T11:51:55.164Z,48.83
2023-08-05T11:54:31.596Z,49.89
2023-08-05T11:56:58.703Z,48.89
2023-08-05T11:59:48.262Z,45.98
2023-08-05T12:02:17.859Z,47.78
2023-08-05T12:04:52.476Z,49.80
2023-08-05T12:07:21.519Z,50.22
2023-08-05T12:10:14.305Z,47.62
2023-08-05T12:12:50.338Z,48.53
2023-08-05T12:15:29.825Z,47.67
2023-08-05T12:18:07.538Z,48.90
2023-08-05T12:20:36.538Z,48.65
2023-08-05T12:23:04.535Z,48.57
2023-08-05T12:25:32.838Z,49.85
2023-08-05T12:28:04.856Z,51.77
2023-08-05T12:30:32.051Z,49.25
2023-08-05T12:32:59.566Z,51.90
2023-08-05T12:35:27.154Z,49.81
2023-08-05T12:37:53.983Z,50.58
2023-08-05T12:40:20.942Z,50.03
2023-08-05T12:42:47.832Z,50.38
2023-08-05T12:45:14.584Z,51.00
2023-08-05T12:47:41.378Z,53.40
2023-08-05T12:50:09.246Z,50.54
2023-08-05T12:52:36.242Z,51.76
2023-08-05T12:55:03.104Z,48.88
2023-08-05T12:57:30.361Z,52.03
2023-08-05T12:59:57.055Z,50.45
2023-08-05T13:02:25.196Z,50.96
2023-08-05T13:04:55.589Z,51.38
2023-08-05T13:07:22.671Z,49.00
2023-08-05T13:09:49.535Z,50.48
2023-08-05T13:12:16.304Z,50.24
2023-08-05T13:14:44.399Z,49.97
2023-08-05T13:17:11.511Z,50.84
2023-08-05T13:19:38.635Z,51.61
2023-08-05T13:22:05.948Z,49.12
2023-08-05T13:24:34.914Z,50.32
2023-08-05T13:27:04.870Z,48.13
2023-08-05T13:29:31.676Z,50.63
2023-08-05T13:31:58.733Z,50.96
2023-08-05T13:34:25.601Z,49.41
2023-08-05T13:36:52.335Z,48.60
2023-08-05T13:39:19.103Z,50.19
2023-08-05T13:41:45.887Z,49.72
2023-08-05T13:44:12.640Z,50.66
2023-08-05T13:46:39.489Z,50.65
2023-08-05T13:49:06.341Z,51.50
2023-08-05T13:51:33.789Z,48.84
2023-08-05T13:54:00.615Z,47.59
2023-08-05T13:56:27.582Z,49.52
2023-08-05T13:58:54.342Z,47.80
2023-08-05T14:01:21.394Z,48.28
2023-08-05T14:03:48.288Z,50.80
2023-08-05T14:06:15.222Z,50.51
2023-08-05T14:08:42.185Z,49.94
2023-08-05T14:11:09.096Z,50.93
2023-08-05T14:13:36.530Z,49.60
2023-08-05T14:16:03.674Z,48.07
2023-08-05T14:18:30.466Z,48.36
2023-08-05T14:20:57.231Z,47.52
2023-08-05T14:23:24.024Z,47.69
2023-08-05T14:25:51.008Z,49.38
2023-08-05T14:28:19.332Z,48.38
2023-08-05T14:30:46.408Z,47.92
2023-08-05T14:33:13.201Z,48.46
2023-08-05T14:35:40.079Z,47.96
2023-08-05T14:38:06.981Z,47.34
2023-08-05T14:40:34.937Z,48.12
2023-08-05T14:43:03.081Z,48.60
2023-08-05T14:45:30.756Z,46.71
2023-08-05T14:47:59.130Z,46.48
2023-08-05T14:50:26.527Z,46.75
2023-08-05T14:52:53.249Z,47.01
2023-08-05T14:55:20.209Z,46.43
2023-08-05T14:57:46.993Z,48.01
2023-08-05T15:00:13.915Z,49.50
2023-08-05T15:02:41.293Z,47.09
2023-08-05T15:05:08.368Z,47.82
2023-08-05T15:07:35.283Z,48.48
2023-08-05T15:10:02.508Z,47.26
2023-08-05T15:12:29.261Z,47.97
2023-08-05T15:14:56.057Z,48.24
2023-08-05T15:17:22.816Z,50.32
2023-08-05T15:19:52.467Z,50.50
2023-08-05T15:22:19.684Z,48.96
2023-08-05T15:24:46.555Z,48.09
2023-08-05T15:27:13.474Z,49.01
2023-08-05T15:29:40.367Z,48.66
2023-08-05T15:32:07.637Z,47.93
2023-08-05T15:34:34.363Z,48.01
2023-08-05T15:37:01.271Z,50.46
2023-08-05T15:39:31.378Z,49.79
2023-08-05T15:41:58.335Z,51.34
2023-08-05T15:44:25.501Z,50.71
2023-08-05T15:46:52.485Z,49.41
2023-08-05T15:49:20.997Z,51.17
2023-08-05T15:51:48.566Z,52.84
2023-08-05T15:54:15.481Z,55.73
2023-08-05T15:56:42.282Z,54.54
2023-08-05T15:59:09.606Z,54.31
2023-08-05T16:01:48.672Z,56.25
2023-08-05T16:04:15.444Z,52.32
2023-08-05T16:06:44.331Z,51.95
2023-08-05T16:09:14.096Z,52.83
2023-08-05T16:11:40.729Z,53.17
2023-08-05T16:14:07.620Z,53.04
2023-08-05T16:16:34.525Z,53.57
2023-08-05T16:19:02.001Z,53.18
2023-08-05T16:21:29.359Z,55.97
2023-08-05T16:23:58.026Z,53.65
2023-08-05T16:26:26.295Z,56.45
2023-08-05T16:28:53.634Z,55.74
2023-08-05T16:31:23.705Z,54.24
2023-08-05T16:33:50.601Z,56.20
2023-08-05T16:36:17.356Z,55.68
2023-08-05T16:38:44.953Z,55.92
2023-08-05T16:41:12.275Z,55.66
2023-08-05T16:43:39.646Z,58.75
2023-08-05T16:46:07.813Z,58.26
2023-08-05T16:48:35.280Z,58.97
2023-08-05T16:51:02.060Z,58.98
2023-08-05T16:53:31.158Z,59.49
2023-08-05T16:56:04.284Z,61.78
2023-08-05T16:58:31.109Z,62.26
2023-08-05T17:00:58.349Z,63.60
2023-08-05T17:03:25.243Z,60.28
2023-08-05T17:05:53.272Z,63.10
2023-08-05T17:08:20.670Z,61.03
2023-08-05T17:10:47.474Z,65.09
2023-08-05T17:13:14.241Z,63.54
2023-08-05T17:15:47.967Z,64.20
2023-08-05T17:18:15.689Z,64.13
2023-08-05T17:20:43.285Z,64.83
2023-08-05T17:23:11.265Z,63.09
2023-08-05T17:25:41.968Z,61.96
2023-08-05T17:28:09.291Z,63.63
2023-08-05T17:30:36.454Z,67.05
2023-08-05T17:33:03.483Z,70.12
2023-08-05T17:35:31.843Z,71.40
2023-08-05T17:37:59.415Z,71.71
2023-08-05T17:40:26.779Z,72.83
2023-08-05T17:42:53.468Z,73.64
2023-08-05T17:45:20.131Z,75.30
2023-08-05T17:47:47.009Z,73.58
2023-08-05T17:50:13.917Z,71.61
2023-08-05T17:52:40.760Z,74.88
2023-08-05T17:55:08.175Z,75.24
2023-08-05T17:57:34.817Z,75.96
2023-08-05T18:00:01.473Z,76.50
2023-08-05T18:02:28.349Z,77.10
2023-08-05T18:04:55.053Z,77.72
2023-08-05T18:07:21.846Z,75.38
2023-08-05T18:09:48.547Z,76.65
2023-08-05T18:12:15.345Z,78.82
2023-08-05T18:14:46.128Z,77.89
2023-08-05T18:17:12.782Z,78.19
2023-08-05T18:19:39.531Z,80.65
2023-08-05T18:22:06.468Z,81.19
2023-08-05T18:24:33.112Z,80.24
2023-08-05T18:26:59.865Z,81.03
2023-08-05T18:29:26.498Z,82.70
2023-08-05T18:31:53.345Z,83.49
2023-08-05T18:34:20.552Z,84.10
2023-08-05T18:36:47.732Z,85.08
2023-08-05T18:39:14.374Z,84.93
2023-08-05T18:41:41.080Z,84.28
2023-08-05T18:44:07.889Z,85.08
2023-08-05T18:46:34.694Z,86.14
2023-08-05T18:49:04.202Z,86.85
2023-08-05T18:51:30.884Z,87.71
2023-08-05T18:53:57.572Z,88.14
2023-08-05T18:56:24.296Z,88.28
2023-08-05T18:58:53.978Z,88.77
2023-08-05T19:01:21.033Z,89.09
2023-08-05T19:03:48.499Z,89.46
2023-08-05T19:06:15.458Z,90.03
2023-08-05T19:08:42.131Z,89.59
2023-08-05T19:11:16.968Z,89.99
2023-08-05T19:13:44.230Z,90.55
2023-08-05T19:16:11.032Z,88.78
2023-08-05T19:18:37.933Z,89.32
2023-08-05T19:21:06.256Z,89.53
2023-08-05T19:23:33.898Z,89.33
2023-08-05T19:26:05.883Z,87.76
2023-08-05T19:28:33.492Z,88.62
2023-08-05T19:31:07.715Z,89.63
2023-08-05T19:33:35.006Z,90.00
2023-08-05T19:36:12.046Z,91.18
2023-08-05T19:38:38.938Z,91.06
2023-08-05T19:41:05.794Z,90.90
2023-08-05T19:43:32.687Z,90.88
2023-08-05T19:46:10.623Z,91.58
2023-08-05T19:48:37.732Z,91.61
2023-08-05T19:51:13.348Z,90.00
2023-08-05T19:53:41.425Z,89.33
2023-08-05T19:56:08.183Z,89.87
2023-08-05T19:58:34.899Z,87.63
2023-08-05T20:01:02.865Z,87.88
2023-08-05T20:03:31.727Z,88.64
2023-08-05T20:05:58.478Z,88.14
2023-08-05T20:08:25.143Z,89.18
2023-08-05T20:10:51.822Z,88.77
2023-08-05T20:13:18.625Z,90.41
2023-08-05T20:15:45.459Z,90.15
2023-08-05T20:18:12.211Z,90.91
2023-08-05T20:20:39.055Z,91.18
2023-08-05T20:23:05.783Z,91.59
2023-08-05T20:25:32.689Z,92.16
2023-08-05T20:27:59.415Z,91.88
2023-08-05T20:30:29.462Z,90.91
2023-08-05T20:32:57.161Z,91.43
2023-08-05T20:35:24.308Z,91.36
2023-08-05T20:37:51.064Z,89.83
2023-08-05T20:40:18.225Z,89.57
2023-08-05T20:42:45.207Z,89.75
2023-08-05T20:45:12.089Z,91.01
2023-08-05T20:47:38.873Z,90.08
2023-08-05T20:50:06.651Z,89.17
2023-08-05T20:52:33.402Z,88.15
2023-08-05T20:55:00.331Z,86.80
2023-08-05T20:57:27.297Z,86.79
2023-08-05T20:59:53.975Z,86.04
2023-08-05T21:02:21.616Z,86.37
2023-08-05T21:04:48.961Z,85.53
2023-08-05T21:07:15.801Z,86.86
2023-08-05T21:09:42.555Z,85.54
2023-08-05T21:12:09.410Z,86.37
2023-08-05T21:14:36.143Z,87.08
2023-08-05T21:17:02.796Z,86.35
2023-08-05T21:19:29.465Z,85.73
2023-08-05T21:21:56.248Z,85.13
2023-08-05T21:24:22.952Z,86.19
2023-08-05T21:26:49.650Z,86.03
2023-08-05T21:29:20.123Z,86.28
2023-08-05T21:31:47.368Z,86.89
2023-08-05T21:34:14.106Z,87.83
2023-08-05T21:36:40.890Z,87.58
2023-08-05T21:39:07.858Z,89.23
2023-08-05T21:41:34.649Z,89.63
2023-08-05T21:44:01.392Z,89.97
2023-08-05T21:46:28.318Z,89.33
2023-08-05T21:48:55.111Z,89.72
2023-08-05T21:51:21.853Z,90.13
2023-08-05T21:53:48.523Z,90.41
2023-08-05T21:56:18.088Z,91.31
2023-08-05T21:58:44.925Z,92.23
2023-08-05T22:01:11.603Z,92.15
2023-08-05T22:03:38.444Z,92.75
2023-08-05T22:06:09.394Z,93.39
2023-08-05T22:08:36.086Z,93.11
2023-08-05T22:11:08.278Z,94.48
2023-08-05T22:13:34.995Z,94.10
2023-08-05T22:16:02.501Z,94.45
2023-08-05T22:18:29.380Z,93.56
2023-08-05T22:20:56.129Z,93.75
2023-08-05T22:23:22.965Z,94.07
2023-08-05T22:25:49.615Z,94.23
2023-08-05T22:28:16.408Z,93.97
2023-08-05T22:30:44.169Z,94.50
2023-08-05T22:33:10.987Z,94.84
2023-08-05T22:35:37.702Z,95.02
2023-08-05T22:38:04.416Z,95.27
2023-08-05T22:40:31.178Z,95.60
2023-08-05T22:42:57.886Z,96.28
2023-08-05T22:45:24.688Z,96.75
2023-08-05T22:47:51.478Z,97.01
2023-08-05T22:50:18.195Z,97.45
2023-08-05T22:52:45.007Z,98.20
2023-08-05T22:55:11.689Z,98.16
2023-08-05T22:57:38.322Z,98.62
2023-08-05T23:00:06.043Z,98.89
2023-08-05T23:02:32.836Z,99.21
2023-08-05T23:04:59.761Z,99.49
2023-08-05T23:07:26.503Z,99.63
2023-08-05T23:09:53.244Z,100.00
2023-08-05T23:12:21.315Z,100.00
2023-08-05T23:14:50.346Z,100.00
2023-08-05T23:17:17.056Z,100.00
2023-08-05T23:19:45.413Z,100.00
2023-08-05T23:22:12.153Z,100.00
2023-08-05T23:24:42.668Z,100.00
2023-08-05T23:27:09.322Z,100.00
2023-08-05T23:29:36.097Z,100.00
2023-08-05T23:32:02.928Z,100.00
2023-08-05T23:34:29.633Z,100.00
2023-08-05T23:36:59.028Z,100.00
2023-08-05T23:39:25.974Z,100.00
2023-08-05T23:41:53.080Z,100.00
2023-08-05T23:44:19.944Z,100.00
2023-08-05T23:46:46.754Z,100.00
2023-08-05T23:49:13.916Z,100.00
2023-08-05T23:51:40.600Z,100.00
2023-08-05T23:54:07.234Z,100.00
2023-08-05T23:56:34.020Z,100.00
2023-08-05T23:59:00.824Z,100.00
